sensor_id;sensor_type;location;lat;lon;timestamp;temperature;humidity
13794;DHT22;31160;49.500;7.772;2024-03-02T00:00:28;3.00;99.90
13794;DHT22;31160;49.500;7.772;2024-03-02T00:02:54;3.00;99.90
13794;DHT22;31160;49.500;7.772;2024-03-02T00:05:22;2.90;99.90
13794;DHT22;31160;49.500;7.772;2024-03-02T00:07:58;2.90;99.90
13794;DHT22;31160;49.500;7.772;2024-03-02T00:10:34;2.90;99.90
13794;DHT22;31160;49.500;7.772;2024-03-02T00:13:03;2.90;99.90
13794;DHT22;31160;49.500;7.772;2024-03-02T00:18:24;3.10;99.90
13794;DHT22;31160;49.500;7.772;2024-03-02T00:20:55;3.10;99.90
13794;DHT22;31160;49.500;7.772;2024-03-02T00:23:24;3.10;99.90
13794;DHT22;31160;49.500;7.772;2024-03-02T00:25:53;3.10;99.90
13794;DHT22;31160;49.500;7.772;2024-03-02T00:28:22;3.20;99.90
13794;DHT22;31160;49.500;7.772;2024-03-02T00:30:55;3.20;99.90
13794;DHT22;31160;49.500;7.772;2024-03-02T00:33:23;3.20;99.90
13794;DHT22;31160;49.500;7.772;2024-03-02T00:35:52;3.10;99.90
13794;DHT22;31160;49.500;7.772;2024-03-02T00:38:19;3.10;99.90
13794;DHT22;31160;49.500;7.772;2024-03-02T00:40:47;3.10;99.90
13794;DHT22;31160;49.500;7.772;2024-03-02T00:46:19;3.10;99.90
13794;DHT22;31160;49.500;7.772;2024-03-02T00:51:25;3.00;99.90
13794;DHT22;31160;49.500;7.772;2024-03-02T00:53:53;3.00;99.90
13794;DHT22;31160;49.500;7.772;2024-03-02T00:56:24;3.00;99.90
13794;DHT22;31160;49.500;7.772;2024-03-02T00:58:51;2.90;99.90
13794;DHT22;31160;49.500;7.772;2024-03-02T01:01:19;2.90;99.90
13794;DHT22;31160;49.500;7.772;2024-03-02T01:03:50;2.90;99.90
13794;DHT22;31160;49.500;7.772;2024-03-02T01:06:17;2.90;99.90
13794;DHT22;31160;49.500;7.772;2024-03-02T01:08:44;2.80;99.90
13794;DHT22;31160;49.500;7.772;2024-03-02T01:11:11;2.80;99.90
13794;DHT22;31160;49.500;7.772;2024-03-02T01:13:38;2.80;99.90
13794;DHT22;31160;49.500;7.772;2024-03-02T01:16:05;2.80;99.90
13794;DHT22;31160;49.500;7.772;2024-03-02T01:18:32;2.80;99.90
13794;DHT22;31160;49.500;7.772;2024-03-02T01:20:59;2.70;99.90
13794;DHT22;31160;49.500;7.772;2024-03-02T01:23:25;2.70;99.90
13794;DHT22;31160;49.500;7.772;2024-03-02T01:25:52;2.70;99.90
13794;DHT22;31160;49.500;7.772;2024-03-02T01:28:20;2.70;99.90
13794;DHT22;31160;49.500;7.772;2024-03-02T01:30:48;2.70;99.90
13794;DHT22;31160;49.500;7.772;2024-03-02T01:33:18;2.70;99.90
13794;DHT22;31160;49.500;7.772;2024-03-02T01:35:45;2.70;99.90
13794;DHT22;31160;49.500;7.772;2024-03-02T01:38:13;2.60;99.90
13794;DHT22;31160;49.500;7.772;2024-03-02T01:40:39;2.60;99.90
13794;DHT22;31160;49.500;7.772;2024-03-02T01:43:07;2.60;99.90
13794;DHT22;31160;49.500;7.772;2024-03-02T01:45:34;2.60;99.90
13794;DHT22;31160;49.500;7.772;2024-03-02T01:48:04;2.60;99.90
13794;DHT22;31160;49.500;7.772;2024-03-02T01:50:34;2.60;99.90
13794;DHT22;31160;49.500;7.772;2024-03-02T01:53:02;2.60;99.90
13794;DHT22;31160;49.500;7.772;2024-03-02T01:55:30;2.50;99.90
13794;DHT22;31160;49.500;7.772;2024-03-02T01:57:57;2.50;99.90
13794;DHT22;31160;49.500;7.772;2024-03-02T02:00:25;2.40;99.90
13794;DHT22;31160;49.500;7.772;2024-03-02T02:02:54;2.40;99.90
13794;DHT22;31160;49.500;7.772;2024-03-02T02:05:21;2.40;99.90
13794;DHT22;31160;49.500;7.772;2024-03-02T02:07:48;2.40;99.90
13794;DHT22;31160;49.500;7.772;2024-03-02T02:10:15;2.40;99.90
13794;DHT22;31160;49.500;7.772;2024-03-02T02:12:42;2.40;99.90
13794;DHT22;31160;49.500;7.772;2024-03-02T02:17:52;2.40;99.90
13794;DHT22;31160;49.500;7.772;2024-03-02T02:20:19;2.30;99.90
13794;DHT22;31160;49.500;7.772;2024-03-02T02:23:05;2.30;99.90
13794;DHT22;31160;49.500;7.772;2024-03-02T02:25:32;2.30;99.90
13794;DHT22;31160;49.500;7.772;2024-03-02T02:27:59;2.20;99.90
13794;DHT22;31160;49.500;7.772;2024-03-02T02:30:28;2.20;99.90
13794;DHT22;31160;49.500;7.772;2024-03-02T02:32:56;2.30;99.90
13794;DHT22;31160;49.500;7.772;2024-03-02T02:35:23;2.20;99.90
13794;DHT22;31160;49.500;7.772;2024-03-02T02:37:54;2.20;99.90
13794;DHT22;31160;49.500;7.772;2024-03-02T02:40:22;2.20;99.90
13794;DHT22;31160;49.500;7.772;2024-03-02T02:42:49;2.20;99.90
13794;DHT22;31160;49.500;7.772;2024-03-02T02:45:16;2.10;99.90
13794;DHT22;31160;49.500;7.772;2024-03-02T02:47:44;2.20;99.90
13794;DHT22;31160;49.500;7.772;2024-03-02T02:50:12;2.20;99.90
13794;DHT22;31160;49.500;7.772;2024-03-02T02:52:41;2.10;99.90
13794;DHT22;31160;49.500;7.772;2024-03-02T02:55:10;2.10;99.90
13794;DHT22;31160;49.500;7.772;2024-03-02T02:57:40;2.10;99.90
13794;DHT22;31160;49.500;7.772;2024-03-02T03:00:10;2.10;99.90
13794;DHT22;31160;49.500;7.772;2024-03-02T03:02:45;2.00;99.90
13794;DHT22;31160;49.500;7.772;2024-03-02T03:05:14;2.00;99.90
13794;DHT22;31160;49.500;7.772;2024-03-02T03:07:41;2.00;99.90
13794;DHT22;31160;49.500;7.772;2024-03-02T03:10:09;2.00;99.90
13794;DHT22;31160;49.500;7.772;2024-03-02T03:12:37;2.00;99.90
13794;DHT22;31160;49.500;7.772;2024-03-02T03:15:04;2.00;99.90
13794;DHT22;31160;49.500;7.772;2024-03-02T03:17:31;2.00;99.90
13794;DHT22;31160;49.500;7.772;2024-03-02T03:19:58;2.10;99.90
13794;DHT22;31160;49.500;7.772;2024-03-02T03:22:25;2.20;99.90
13794;DHT22;31160;49.500;7.772;2024-03-02T03:24:52;2.30;99.90
13794;DHT22;31160;49.500;7.772;2024-03-02T03:27:19;2.30;99.90
13794;DHT22;31160;49.500;7.772;2024-03-02T03:29:46;2.30;99.90
13794;DHT22;31160;49.500;7.772;2024-03-02T03:32:13;2.30;99.90
13794;DHT22;31160;49.500;7.772;2024-03-02T03:34:40;2.20;99.90
13794;DHT22;31160;49.500;7.772;2024-03-02T03:37:07;2.20;99.90
13794;DHT22;31160;49.500;7.772;2024-03-02T03:39:34;2.20;99.90
13794;DHT22;31160;49.500;7.772;2024-03-02T03:42:03;2.20;99.90
13794;DHT22;31160;49.500;7.772;2024-03-02T03:44:30;2.20;99.90
13794;DHT22;31160;49.500;7.772;2024-03-02T03:46:57;2.20;99.90
13794;DHT22;31160;49.500;7.772;2024-03-02T03:49:23;2.10;99.90
13794;DHT22;31160;49.500;7.772;2024-03-02T03:51:50;2.10;99.90
13794;DHT22;31160;49.500;7.772;2024-03-02T03:54:17;2.10;99.90
13794;DHT22;31160;49.500;7.772;2024-03-02T03:56:44;2.00;99.90
13794;DHT22;31160;49.500;7.772;2024-03-02T03:59:11;2.00;99.90
13794;DHT22;31160;49.500;7.772;2024-03-02T04:01:37;2.10;99.90
13794;DHT22;31160;49.500;7.772;2024-03-02T04:04:05;2.10;99.90
13794;DHT22;31160;49.500;7.772;2024-03-02T04:06:31;2.10;99.90
13794;DHT22;31160;49.500;7.772;2024-03-02T04:08:58;2.00;99.90
13794;DHT22;31160;49.500;7.772;2024-03-02T04:11:25;2.00;99.90
13794;DHT22;31160;49.500;7.772;2024-03-02T04:13:52;2.00;99.90
13794;DHT22;31160;49.500;7.772;2024-03-02T04:16:22;2.10;99.90
13794;DHT22;31160;49.500;7.772;2024-03-02T04:18:49;2.10;99.90
13794;DHT22;31160;49.500;7.772;2024-03-02T04:21:16;2.10;99.90
13794;DHT22;31160;49.500;7.772;2024-03-02T04:23:43;2.00;99.90
13794;DHT22;31160;49.500;7.772;2024-03-02T04:26:09;2.00;99.90
13794;DHT22;31160;49.500;7.772;2024-03-02T04:28:36;2.00;99.90
13794;DHT22;31160;49.500;7.772;2024-03-02T04:31:03;2.00;99.90
13794;DHT22;31160;49.500;7.772;2024-03-02T04:33:30;2.00;99.90
13794;DHT22;31160;49.500;7.772;2024-03-02T04:35:57;2.10;99.90
13794;DHT22;31160;49.500;7.772;2024-03-02T04:38:24;2.20;99.90
13794;DHT22;31160;49.500;7.772;2024-03-02T04:40:51;2.20;99.90
13794;DHT22;31160;49.500;7.772;2024-03-02T04:43:17;2.30;99.90
13794;DHT22;31160;49.500;7.772;2024-03-02T04:45:45;2.40;99.90
13794;DHT22;31160;49.500;7.772;2024-03-02T04:48:12;2.40;99.90
13794;DHT22;31160;49.500;7.772;2024-03-02T04:50:40;2.40;99.90
13794;DHT22;31160;49.500;7.772;2024-03-02T04:53:07;2.50;99.90
13794;DHT22;31160;49.500;7.772;2024-03-02T04:55:34;2.50;99.90
13794;DHT22;31160;49.500;7.772;2024-03-02T04:58:01;2.60;99.90
13794;DHT22;31160;49.500;7.772;2024-03-02T05:00:28;2.60;99.90
13794;DHT22;31160;49.500;7.772;2024-03-02T05:02:55;2.70;99.90
13794;DHT22;31160;49.500;7.772;2024-03-02T05:05:22;2.70;99.90
13794;DHT22;31160;49.500;7.772;2024-03-02T05:07:49;2.80;99.90
13794;DHT22;31160;49.500;7.772;2024-03-02T05:10:16;2.80;99.90
13794;DHT22;31160;49.500;7.772;2024-03-02T05:12:43;2.80;99.90
13794;DHT22;31160;49.500;7.772;2024-03-02T05:15:11;2.90;99.90
13794;DHT22;31160;49.500;7.772;2024-03-02T05:17:39;3.00;99.90
13794;DHT22;31160;49.500;7.772;2024-03-02T05:20:06;3.10;99.90
13794;DHT22;31160;49.500;7.772;2024-03-02T05:22:37;3.10;99.90
13794;DHT22;31160;49.500;7.772;2024-03-02T05:25:04;3.20;99.90
13794;DHT22;31160;49.500;7.772;2024-03-02T05:27:32;3.20;99.90
13794;DHT22;31160;49.500;7.772;2024-03-02T05:30:00;3.30;99.90
13794;DHT22;31160;49.500;7.772;2024-03-02T05:32:27;3.30;99.90
13794;DHT22;31160;49.500;7.772;2024-03-02T05:34:53;3.40;99.90
13794;DHT22;31160;49.500;7.772;2024-03-02T05:37:21;3.40;99.90
13794;DHT22;31160;49.500;7.772;2024-03-02T05:39:48;3.40;99.90
13794;DHT22;31160;49.500;7.772;2024-03-02T05:42:15;3.50;99.90
13794;DHT22;31160;49.500;7.772;2024-03-02T05:44:43;3.50;99.90
13794;DHT22;31160;49.500;7.772;2024-03-02T05:47:10;3.50;99.90
13794;DHT22;31160;49.500;7.772;2024-03-02T05:49:37;3.50;99.90
13794;DHT22;31160;49.500;7.772;2024-03-02T05:52:04;3.50;99.90
13794;DHT22;31160;49.500;7.772;2024-03-02T05:54:31;3.50;99.90
13794;DHT22;31160;49.500;7.772;2024-03-02T05:56:57;3.50;99.90
13794;DHT22;31160;49.500;7.772;2024-03-02T05:59:43;3.60;99.90
13794;DHT22;31160;49.500;7.772;2024-03-02T06:02:12;3.60;99.90
13794;DHT22;31160;49.500;7.772;2024-03-02T06:04:39;3.60;99.90
13794;DHT22;31160;49.500;7.772;2024-03-02T06:07:06;3.60;99.90
13794;DHT22;31160;49.500;7.772;2024-03-02T06:09:33;3.70;99.90
13794;DHT22;31160;49.500;7.772;2024-03-02T06:12:00;3.70;99.90
13794;DHT22;31160;49.500;7.772;2024-03-02T06:14:27;3.80;99.90
13794;DHT22;31160;49.500;7.772;2024-03-02T06:16:53;3.90;99.90
13794;DHT22;31160;49.500;7.772;2024-03-02T06:19:20;3.80;99.90
13794;DHT22;31160;49.500;7.772;2024-03-02T06:21:47;3.80;99.90
13794;DHT22;31160;49.500;7.772;2024-03-02T06:24:14;3.80;99.90
13794;DHT22;31160;49.500;7.772;2024-03-02T06:26:41;3.80;99.90
13794;DHT22;31160;49.500;7.772;2024-03-02T06:29:08;3.90;99.90
13794;DHT22;31160;49.500;7.772;2024-03-02T06:31:35;4.00;99.90
13794;DHT22;31160;49.500;7.772;2024-03-02T06:34:01;4.00;99.90
13794;DHT22;31160;49.500;7.772;2024-03-02T06:36:30;4.10;99.90
13794;DHT22;31160;49.500;7.772;2024-03-02T06:38:57;4.10;99.90
13794;DHT22;31160;49.500;7.772;2024-03-02T06:41:23;4.30;99.90
13794;DHT22;31160;49.500;7.772;2024-03-02T06:43:50;4.30;99.90
13794;DHT22;31160;49.500;7.772;2024-03-02T06:46:21;4.40;99.90
13794;DHT22;31160;49.500;7.772;2024-03-02T06:48:47;4.40;99.90
13794;DHT22;31160;49.500;7.772;2024-03-02T06:51:14;4.40;99.90
13794;DHT22;31160;49.500;7.772;2024-03-02T06:53:42;4.50;99.90
13794;DHT22;31160;49.500;7.772;2024-03-02T06:56:09;4.50;99.90
13794;DHT22;31160;49.500;7.772;2024-03-02T06:58:36;4.60;99.90
13794;DHT22;31160;49.500;7.772;2024-03-02T07:01:03;4.60;99.90
13794;DHT22;31160;49.500;7.772;2024-03-02T07:03:29;4.70;99.90
13794;DHT22;31160;49.500;7.772;2024-03-02T07:05:56;4.80;99.90
13794;DHT22;31160;49.500;7.772;2024-03-02T07:08:23;4.90;99.90
13794;DHT22;31160;49.500;7.772;2024-03-02T07:10:50;4.90;99.90
13794;DHT22;31160;49.500;7.772;2024-03-02T07:13:17;4.90;99.90
13794;DHT22;31160;49.500;7.772;2024-03-02T07:15:44;4.90;99.90
13794;DHT22;31160;49.500;7.772;2024-03-02T07:18:31;5.00;99.90
13794;DHT22;31160;49.500;7.772;2024-03-02T07:20:58;5.10;99.90
13794;DHT22;31160;49.500;7.772;2024-03-02T07:23:27;5.20;99.90
13794;DHT22;31160;49.500;7.772;2024-03-02T07:25:54;5.30;99.90
13794;DHT22;31160;49.500;7.772;2024-03-02T07:28:26;5.30;99.90
13794;DHT22;31160;49.500;7.772;2024-03-02T07:31:00;5.40;99.90
13794;DHT22;31160;49.500;7.772;2024-03-02T07:33:28;5.50;99.90
13794;DHT22;31160;49.500;7.772;2024-03-02T07:35:55;5.70;99.90
13794;DHT22;31160;49.500;7.772;2024-03-02T07:38:23;5.80;99.90
13794;DHT22;31160;49.500;7.772;2024-03-02T07:40:50;5.90;99.90
13794;DHT22;31160;49.500;7.772;2024-03-02T07:43:20;5.90;99.90
13794;DHT22;31160;49.500;7.772;2024-03-02T07:45:47;6.00;99.90
13794;DHT22;31160;49.500;7.772;2024-03-02T07:48:15;6.10;99.90
13794;DHT22;31160;49.500;7.772;2024-03-02T07:50:42;6.20;99.90
13794;DHT22;31160;49.500;7.772;2024-03-02T07:53:09;6.40;99.90
13794;DHT22;31160;49.500;7.772;2024-03-02T07:55:36;6.60;99.90
13794;DHT22;31160;49.500;7.772;2024-03-02T07:58:03;6.80;99.90
13794;DHT22;31160;49.500;7.772;2024-03-02T08:00:30;7.00;99.90
13794;DHT22;31160;49.500;7.772;2024-03-02T08:02:57;7.10;99.90
13794;DHT22;31160;49.500;7.772;2024-03-02T08:05:24;7.30;99.90
13794;DHT22;31160;49.500;7.772;2024-03-02T08:07:51;7.40;99.90
13794;DHT22;31160;49.500;7.772;2024-03-02T08:10:21;7.50;99.90
13794;DHT22;31160;49.500;7.772;2024-03-02T08:12:47;7.60;99.90
13794;DHT22;31160;49.500;7.772;2024-03-02T08:15:14;7.70;99.90
13794;DHT22;31160;49.500;7.772;2024-03-02T08:17:41;7.80;99.90
13794;DHT22;31160;49.500;7.772;2024-03-02T08:20:12;7.90;99.90
13794;DHT22;31160;49.500;7.772;2024-03-02T08:22:39;8.00;99.90
13794;DHT22;31160;49.500;7.772;2024-03-02T08:25:07;8.10;99.90
13794;DHT22;31160;49.500;7.772;2024-03-02T08:27:34;8.20;99.90
13794;DHT22;31160;49.500;7.772;2024-03-02T08:30:02;8.50;99.90
13794;DHT22;31160;49.500;7.772;2024-03-02T08:32:34;8.60;99.90
13794;DHT22;31160;49.500;7.772;2024-03-02T08:35:01;8.90;99.90
13794;DHT22;31160;49.500;7.772;2024-03-02T08:37:28;9.00;99.90
13794;DHT22;31160;49.500;7.772;2024-03-02T08:39:55;9.10;99.90
13794;DHT22;31160;49.500;7.772;2024-03-02T08:42:22;9.20;99.90
13794;DHT22;31160;49.500;7.772;2024-03-02T08:44:50;9.20;99.90
13794;DHT22;31160;49.500;7.772;2024-03-02T08:47:17;9.30;99.90
13794;DHT22;31160;49.500;7.772;2024-03-02T08:49:43;9.30;99.90
13794;DHT22;31160;49.500;7.772;2024-03-02T08:52:10;9.30;99.90
13794;DHT22;31160;49.500;7.772;2024-03-02T08:54:37;9.30;99.90
13794;DHT22;31160;49.500;7.772;2024-03-02T08:57:05;9.30;99.90
13794;DHT22;31160;49.500;7.772;2024-03-02T08:59:32;9.30;99.90
13794;DHT22;31160;49.500;7.772;2024-03-02T09:01:59;9.30;99.90
13794;DHT22;31160;49.500;7.772;2024-03-02T09:04:27;9.40;99.90
13794;DHT22;31160;49.500;7.772;2024-03-02T09:06:59;9.40;99.90
13794;DHT22;31160;49.500;7.772;2024-03-02T09:09:26;9.60;99.90
13794;DHT22;31160;49.500;7.772;2024-03-02T09:11:53;9.70;99.90
13794;DHT22;31160;49.500;7.772;2024-03-02T09:14:21;9.90;99.90
13794;DHT22;31160;49.500;7.772;2024-03-02T09:16:48;10.10;99.90
13794;DHT22;31160;49.500;7.772;2024-03-02T09:19:15;10.20;99.90
13794;DHT22;31160;49.500;7.772;2024-03-02T09:21:43;10.30;99.90
13794;DHT22;31160;49.500;7.772;2024-03-02T09:24:10;10.40;99.90
13794;DHT22;31160;49.500;7.772;2024-03-02T09:26:39;10.50;99.90
13794;DHT22;31160;49.500;7.772;2024-03-02T09:29:05;10.60;99.90
13794;DHT22;31160;49.500;7.772;2024-03-02T09:31:32;10.60;99.90
13794;DHT22;31160;49.500;7.772;2024-03-02T09:33:59;10.70;99.90
13794;DHT22;31160;49.500;7.772;2024-03-02T09:36:26;10.90;99.90
13794;DHT22;31160;49.500;7.772;2024-03-02T09:38:53;10.90;99.90
13794;DHT22;31160;49.500;7.772;2024-03-02T09:41:19;10.80;99.90
13794;DHT22;31160;49.500;7.772;2024-03-02T09:43:46;10.80;99.90
13794;DHT22;31160;49.500;7.772;2024-03-02T09:46:14;10.90;99.90
13794;DHT22;31160;49.500;7.772;2024-03-02T09:48:41;11.10;99.90
13794;DHT22;31160;49.500;7.772;2024-03-02T09:51:10;11.10;99.90
13794;DHT22;31160;49.500;7.772;2024-03-02T09:53:37;11.30;99.90
13794;DHT22;31160;49.500;7.772;2024-03-02T09:56:04;11.40;99.90
13794;DHT22;31160;49.500;7.772;2024-03-02T09:58:31;11.40;99.90
13794;DHT22;31160;49.500;7.772;2024-03-02T10:00:58;11.30;99.90
13794;DHT22;31160;49.500;7.772;2024-03-02T10:03:25;11.30;99.90
13794;DHT22;31160;49.500;7.772;2024-03-02T10:05:53;11.40;99.90
13794;DHT22;31160;49.500;7.772;2024-03-02T10:08:20;11.40;99.90
13794;DHT22;31160;49.500;7.772;2024-03-02T10:10:47;11.40;99.90
13794;DHT22;31160;49.500;7.772;2024-03-02T10:13:14;11.50;99.90
13794;DHT22;31160;49.500;7.772;2024-03-02T10:15:41;11.50;99.90
13794;DHT22;31160;49.500;7.772;2024-03-02T10:18:09;11.60;99.90
13794;DHT22;31160;49.500;7.772;2024-03-02T10:20:39;11.80;99.90
13794;DHT22;31160;49.500;7.772;2024-03-02T10:23:16;11.60;99.90
13794;DHT22;31160;49.500;7.772;2024-03-02T10:25:44;11.90;99.90
13794;DHT22;31160;49.500;7.772;2024-03-02T10:28:23;12.10;99.90
13794;DHT22;31160;49.500;7.772;2024-03-02T10:30:51;12.20;99.90
13794;DHT22;31160;49.500;7.772;2024-03-02T10:33:19;12.10;99.90
13794;DHT22;31160;49.500;7.772;2024-03-02T10:35:49;12.20;99.90
13794;DHT22;31160;49.500;7.772;2024-03-02T10:38:17;12.40;99.90
13794;DHT22;31160;49.500;7.772;2024-03-02T10:40:47;12.00;99.90
13794;DHT22;31160;49.500;7.772;2024-03-02T10:43:15;12.10;99.90
13794;DHT22;31160;49.500;7.772;2024-03-02T10:45:44;12.10;99.90
13794;DHT22;31160;49.500;7.772;2024-03-02T10:48:12;12.20;99.90
13794;DHT22;31160;49.500;7.772;2024-03-02T10:50:39;12.30;99.90
13794;DHT22;31160;49.500;7.772;2024-03-02T10:53:06;12.40;99.90
13794;DHT22;31160;49.500;7.772;2024-03-02T10:55:33;12.50;99.90
13794;DHT22;31160;49.500;7.772;2024-03-02T10:58:00;12.30;99.90
13794;DHT22;31160;49.500;7.772;2024-03-02T11:00:34;12.60;99.90
13794;DHT22;31160;49.500;7.772;2024-03-02T11:03:07;12.60;99.90
13794;DHT22;31160;49.500;7.772;2024-03-02T11:05:42;12.60;99.90
13794;DHT22;31160;49.500;7.772;2024-03-02T11:08:14;12.50;99.80
13794;DHT22;31160;49.500;7.772;2024-03-02T11:10:57;12.40;99.90
13794;DHT22;31160;49.500;7.772;2024-03-02T11:13:30;12.60;99.90
13794;DHT22;31160;49.500;7.772;2024-03-02T11:16:04;12.80;99.90
13794;DHT22;31160;49.500;7.772;2024-03-02T11:18:33;13.00;99.60
13794;DHT22;31160;49.500;7.772;2024-03-02T11:21:02;13.20;99.60
13794;DHT22;31160;49.500;7.772;2024-03-02T11:23:34;13.50;99.60
13794;DHT22;31160;49.500;7.772;2024-03-02T11:26:21;13.60;99.10
13794;DHT22;31160;49.500;7.772;2024-03-02T11:28:48;13.50;98.40
13794;DHT22;31160;49.500;7.772;2024-03-02T11:31:15;13.20;98.50
13794;DHT22;31160;49.500;7.772;2024-03-02T11:33:41;13.10;98.90
13794;DHT22;31160;49.500;7.772;2024-03-02T11:36:09;13.40;98.90
13794;DHT22;31160;49.500;7.772;2024-03-02T11:38:38;13.60;98.40
13794;DHT22;31160;49.500;7.772;2024-03-02T11:41:07;13.50;98.50
13794;DHT22;31160;49.500;7.772;2024-03-02T11:43:38;13.70;98.10
13794;DHT22;31160;49.500;7.772;2024-03-02T11:46:06;13.70;97.90
13794;DHT22;31160;49.500;7.772;2024-03-02T11:48:37;13.50;98.50
13794;DHT22;31160;49.500;7.772;2024-03-02T11:51:05;13.50;98.60
13794;DHT22;31160;49.500;7.772;2024-03-02T11:53:33;13.60;98.20
13794;DHT22;31160;49.500;7.772;2024-03-02T11:56:02;13.60;98.10
13794;DHT22;31160;49.500;7.772;2024-03-02T11:58:30;13.60;98.50
13794;DHT22;31160;49.500;7.772;2024-03-02T12:00:57;13.80;98.30
13794;DHT22;31160;49.500;7.772;2024-03-02T12:03:25;13.80;98.20
13794;DHT22;31160;49.500;7.772;2024-03-02T12:05:53;13.80;97.70
13794;DHT22;31160;49.500;7.772;2024-03-02T12:08:20;13.40;98.40
13794;DHT22;31160;49.500;7.772;2024-03-02T12:11:01;13.60;98.00
13794;DHT22;31160;49.500;7.772;2024-03-02T12:13:30;13.60;98.20
13794;DHT22;31160;49.500;7.772;2024-03-02T12:15:57;13.80;98.00
13794;DHT22;31160;49.500;7.772;2024-03-02T12:18:25;13.70;97.80
13794;DHT22;31160;49.500;7.772;2024-03-02T12:20:52;13.60;98.60
13794;DHT22;31160;49.500;7.772;2024-03-02T12:23:20;13.70;98.60
13794;DHT22;31160;49.500;7.772;2024-03-02T12:25:46;13.80;98.00
13794;DHT22;31160;49.500;7.772;2024-03-02T12:28:13;14.10;97.40
13794;DHT22;31160;49.500;7.772;2024-03-02T12:30:40;14.10;97.50
13794;DHT22;31160;49.500;7.772;2024-03-02T12:33:07;14.20;97.50
13794;DHT22;31160;49.500;7.772;2024-03-02T12:35:36;14.10;97.30
13794;DHT22;31160;49.500;7.772;2024-03-02T12:38:02;14.30;97.20
13794;DHT22;31160;49.500;7.772;2024-03-02T12:40:30;14.50;97.00
13794;DHT22;31160;49.500;7.772;2024-03-02T12:42:57;14.40;97.10
13794;DHT22;31160;49.500;7.772;2024-03-02T12:45:24;14.40;96.40
13794;DHT22;31160;49.500;7.772;2024-03-02T12:47:52;14.30;96.40
13794;DHT22;31160;49.500;7.772;2024-03-02T12:50:20;13.80;96.80
13794;DHT22;31160;49.500;7.772;2024-03-02T12:52:54;13.80;97.50
13794;DHT22;31160;49.500;7.772;2024-03-02T12:55:22;14.00;97.40
13794;DHT22;31160;49.500;7.772;2024-03-02T12:57:51;13.90;97.10
13794;DHT22;31160;49.500;7.772;2024-03-02T13:00:20;13.60;97.60
13794;DHT22;31160;49.500;7.772;2024-03-02T13:02:47;13.70;97.40
13794;DHT22;31160;49.500;7.772;2024-03-02T13:05:19;13.80;97.00
13794;DHT22;31160;49.500;7.772;2024-03-02T13:07:50;13.60;97.40
13794;DHT22;31160;49.500;7.772;2024-03-02T13:10:17;13.70;97.30
13794;DHT22;31160;49.500;7.772;2024-03-02T13:12:45;13.80;97.40
13794;DHT22;31160;49.500;7.772;2024-03-02T13:15:12;13.80;97.20
13794;DHT22;31160;49.500;7.772;2024-03-02T13:17:45;13.80;97.20
13794;DHT22;31160;49.500;7.772;2024-03-02T13:20:15;13.90;97.00
13794;DHT22;31160;49.500;7.772;2024-03-02T13:22:44;14.00;97.10
13794;DHT22;31160;49.500;7.772;2024-03-02T13:25:11;13.90;97.30
13794;DHT22;31160;49.500;7.772;2024-03-02T13:27:39;14.00;97.60
13794;DHT22;31160;49.500;7.772;2024-03-02T13:30:07;14.10;97.60
13794;DHT22;31160;49.500;7.772;2024-03-02T13:32:35;14.20;97.20
13794;DHT22;31160;49.500;7.772;2024-03-02T13:35:02;14.00;97.10
13794;DHT22;31160;49.500;7.772;2024-03-02T13:37:29;14.00;97.50
13794;DHT22;31160;49.500;7.772;2024-03-02T13:39:56;14.10;97.00
13794;DHT22;31160;49.500;7.772;2024-03-02T13:42:23;14.10;97.00
13794;DHT22;31160;49.500;7.772;2024-03-02T13:44:50;13.80;97.30
13794;DHT22;31160;49.500;7.772;2024-03-02T13:47:18;14.10;97.00
13794;DHT22;31160;49.500;7.772;2024-03-02T13:49:45;14.20;96.60
13794;DHT22;31160;49.500;7.772;2024-03-02T13:52:14;14.10;96.70
13794;DHT22;31160;49.500;7.772;2024-03-02T13:54:42;13.80;97.10
13794;DHT22;31160;49.500;7.772;2024-03-02T13:57:10;13.50;97.60
13794;DHT22;31160;49.500;7.772;2024-03-02T13:59:38;13.50;97.50
13794;DHT22;31160;49.500;7.772;2024-03-02T14:02:05;13.40;97.70
13794;DHT22;31160;49.500;7.772;2024-03-02T14:04:36;13.40;97.80
13794;DHT22;31160;49.500;7.772;2024-03-02T14:07:04;13.50;97.50
13794;DHT22;31160;49.500;7.772;2024-03-02T14:09:34;13.60;97.50
13794;DHT22;31160;49.500;7.772;2024-03-02T14:12:02;13.70;97.40
13794;DHT22;31160;49.500;7.772;2024-03-02T14:14:29;13.90;97.10
13794;DHT22;31160;49.500;7.772;2024-03-02T14:16:56;14.10;97.30
13794;DHT22;31160;49.500;7.772;2024-03-02T14:19:26;14.00;97.10
13794;DHT22;31160;49.500;7.772;2024-03-02T14:21:54;14.20;97.10
13794;DHT22;31160;49.500;7.772;2024-03-02T14:24:21;14.20;97.00
13794;DHT22;31160;49.500;7.772;2024-03-02T14:26:50;14.20;97.00
13794;DHT22;31160;49.500;7.772;2024-03-02T14:29:19;14.30;97.10
13794;DHT22;31160;49.500;7.772;2024-03-02T14:31:46;14.30;96.70
13794;DHT22;31160;49.500;7.772;2024-03-02T14:34:15;14.00;96.90
13794;DHT22;31160;49.500;7.772;2024-03-02T14:36:42;14.10;96.70
13794;DHT22;31160;49.500;7.772;2024-03-02T14:39:11;14.20;96.90
13794;DHT22;31160;49.500;7.772;2024-03-02T14:41:38;14.20;97.00
13794;DHT22;31160;49.500;7.772;2024-03-02T14:44:04;14.30;97.00
13794;DHT22;31160;49.500;7.772;2024-03-02T14:46:31;14.30;97.10
13794;DHT22;31160;49.500;7.772;2024-03-02T14:48:58;14.20;97.10
13794;DHT22;31160;49.500;7.772;2024-03-02T14:51:25;13.90;97.50
13794;DHT22;31160;49.500;7.772;2024-03-02T14:53:52;14.10;97.70
13794;DHT22;31160;49.500;7.772;2024-03-02T14:56:20;14.10;97.70
13794;DHT22;31160;49.500;7.772;2024-03-02T14:58:46;14.00;98.00
13794;DHT22;31160;49.500;7.772;2024-03-02T15:01:13;14.00;97.80
13794;DHT22;31160;49.500;7.772;2024-03-02T15:03:41;14.00;97.70
13794;DHT22;31160;49.500;7.772;2024-03-02T15:06:08;13.90;97.90
13794;DHT22;31160;49.500;7.772;2024-03-02T15:08:35;13.90;97.80
13794;DHT22;31160;49.500;7.772;2024-03-02T15:11:01;13.70;98.20
13794;DHT22;31160;49.500;7.772;2024-03-02T15:13:30;13.70;98.20
13794;DHT22;31160;49.500;7.772;2024-03-02T15:15:57;13.80;98.40
13794;DHT22;31160;49.500;7.772;2024-03-02T15:18:25;13.80;98.50
13794;DHT22;31160;49.500;7.772;2024-03-02T15:20:52;13.60;98.70
13794;DHT22;31160;49.500;7.772;2024-03-02T15:23:19;13.70;98.80
13794;DHT22;31160;49.500;7.772;2024-03-02T15:25:45;13.70;98.60
13794;DHT22;31160;49.500;7.772;2024-03-02T15:28:13;13.40;98.80
13794;DHT22;31160;49.500;7.772;2024-03-02T15:30:40;13.50;98.70
13794;DHT22;31160;49.500;7.772;2024-03-02T15:33:07;13.50;98.70
13794;DHT22;31160;49.500;7.772;2024-03-02T15:35:33;13.40;98.80
13794;DHT22;31160;49.500;7.772;2024-03-02T15:38:00;13.10;98.80
13794;DHT22;31160;49.500;7.772;2024-03-02T15:40:27;13.00;99.40
13794;DHT22;31160;49.500;7.772;2024-03-02T15:42:55;13.20;99.00
13794;DHT22;31160;49.500;7.772;2024-03-02T15:45:21;13.30;98.80
13794;DHT22;31160;49.500;7.772;2024-03-02T15:47:48;13.30;99.00
13794;DHT22;31160;49.500;7.772;2024-03-02T15:50:15;13.30;98.90
13794;DHT22;31160;49.500;7.772;2024-03-02T15:52:42;13.30;99.20
13794;DHT22;31160;49.500;7.772;2024-03-02T15:55:09;13.20;99.30